createdAt,value
2022-08-22T00:00:16.678Z,20.51
2022-08-22T00:02:41.797Z,21.71
2022-08-22T00:02:55.494Z,20.69
2022-08-22T00:02:58.169Z,20.33
2022-08-22T00:03:01.247Z,20.48
2022-08-22T00:03:09.502Z,20.77
2022-08-22T00:03:11.173Z,21.73
2022-08-22T00:03:25.432Z,20.66
2022-08-22T00:06:08.072Z,20.85
2022-08-22T00:08:47.823Z,20.96
2022-08-22T00:11:26.787Z,21.11
2022-08-22T00:14:05.242Z,21.04
2022-08-22T00:16:42.681Z,21.19
2022-08-22T00:19:23.934Z,21.23
2022-08-22T00:21:58.894Z,21.17
2022-08-22T00:24:33.219Z,20.89
2022-08-22T00:27:07.351Z,20.85
2022-08-22T00:29:43.668Z,20.76
2022-08-22T00:32:20.272Z,20.86
2022-08-22T00:34:58.158Z,21.02
2022-08-22T00:37:33.379Z,21.13
2022-08-22T00:40:28.879Z,21.28
2022-08-22T00:43:25.802Z,21.24
2022-08-22T00:46:15.815Z,21.23
2022-08-22T00:49:15.523Z,21.34
2022-08-22T00:52:20.018Z,21.11
2022-08-22T00:55:04.612Z,21.21
2022-08-22T00:57:52.308Z,21.25
2022-08-22T01:00:26.559Z,21.20
2022-08-22T01:03:32.872Z,21.06
2022-08-22T01:06:17.729Z,20.82
2022-08-22T01:09:04.360Z,20.84
2022-08-22T01:11:49.969Z,20.75
2022-08-22T01:14:37.364Z,20.84
2022-08-22T01:17:37.258Z,20.78
2022-08-22T01:20:43.297Z,21.03
2022-08-22T01:23:42.430Z,21.01
2022-08-22T01:26:49.161Z,21.04
2022-08-22T01:29:40.946Z,21.12
2022-08-22T01:32:49.246Z,21.26
2022-08-22T01:36:01.379Z,21.24
2022-08-22T01:38:55.891Z,21.30
2022-08-22T01:42:04.502Z,21.30
2022-08-22T01:44:59.928Z,21.14
2022-08-22T01:47:37.791Z,20.97
2022-08-22T01:50:18.797Z,20.94
2022-08-22T01:52:53.559Z,20.86
2022-08-22T01:55:33.063Z,21.02
2022-08-22T01:58:05.534Z,21.02
2022-08-22T02:00:52.181Z,21.01
2022-08-22T02:03:29.389Z,20.95
2022-08-22T02:06:05.081Z,21.00
2022-08-22T02:08:50.790Z,21.08
2022-08-22T02:11:45.687Z,21.21
2022-08-22T02:14:37.253Z,21.30
2022-08-22T02:17:18.688Z,21.27
2022-08-22T02:19:59.273Z,21.33
2022-08-22T02:22:44.534Z,21.11
2022-08-22T02:25:20.587Z,21.09
2022-08-22T02:27:57.553Z,20.93
2022-08-22T02:30:44.208Z,20.92
2022-08-22T02:33:24.085Z,20.75
2022-08-22T02:35:58.902Z,20.79
2022-08-22T02:38:35.761Z,20.83
2022-08-22T02:41:13.747Z,20.89
2022-08-22T02:43:49.761Z,20.97
2022-08-22T02:46:28.512Z,20.94
2022-08-22T02:49:07.573Z,21.06
2022-08-22T02:51:48.447Z,21.02
2022-08-22T02:54:25.321Z,20.96
2022-08-22T02:57:03.593Z,20.77
2022-08-22T02:59:38.403Z,20.68
2022-08-22T03:02:33.508Z,20.53
2022-08-22T03:05:15.794Z,20.53
2022-08-22T03:07:51.033Z,20.60
2022-08-22T03:15:50.753Z,20.66
2022-08-22T03:18:26.812Z,20.46
2022-08-22T03:21:01.128Z,20.57
2022-08-22T03:23:40.346Z,20.54
2022-08-22T03:26:16.729Z,20.56
2022-08-22T03:28:59.009Z,20.55
2022-08-22T03:31:32.139Z,20.50
2022-08-22T03:34:21.483Z,20.63
2022-08-22T03:37:03.761Z,20.69
2022-08-22T03:39:58.230Z,20.85
2022-08-22T03:42:55.758Z,20.74
2022-08-22T03:46:04.775Z,20.89
2022-08-22T03:49:12.129Z,20.82
2022-08-22T03:51:56.220Z,20.59
2022-08-22T03:54:54.611Z,20.88
2022-08-22T03:57:58.796Z,20.86
2022-08-22T04:00:55.958Z,21.01
2022-08-22T04:04:07.668Z,20.98
2022-08-22T04:06:56.821Z,21.06
2022-08-22T04:10:03.971Z,21.29
2022-08-22T04:13:05.714Z,21.26
2022-08-22T04:16:15.417Z,21.13
2022-08-22T04:19:11.924Z,21.01
2022-08-22T04:21:59.452Z,20.99
2022-08-22T04:24:53.993Z,21.05
2022-08-22T04:27:29.865Z,20.82
2022-08-22T04:30:04.733Z,20.74
2022-08-22T04:32:40.252Z,20.78
2022-08-22T04:35:20.821Z,20.95
2022-08-22T04:37:57.113Z,20.91
2022-08-22T04:40:30.280Z,20.91
2022-08-22T04:43:10.357Z,21.07
2022-08-22T04:45:44.911Z,20.92
2022-08-22T04:48:22.615Z,21.25
2022-08-22T04:50:59.138Z,21.52
2022-08-22T04:53:53.667Z,21.77
2022-08-22T04:56:34.492Z,21.68
2022-08-22T04:59:10.406Z,21.77
2022-08-22T05:01:43.874Z,21.63
2022-08-22T05:04:18.566Z,21.55
2022-08-22T05:06:53.757Z,21.63
2022-08-22T05:09:26.086Z,22.06
2022-08-22T05:12:01.808Z,22.04
2022-08-22T05:14:41.022Z,21.84
2022-08-22T05:17:15.555Z,21.91
2022-08-22T05:19:51.477Z,21.96
2022-08-22T05:22:26.152Z,21.95
2022-08-22T05:25:00.998Z,22.19
2022-08-22T05:27:34.759Z,22.13
2022-08-22T05:30:09.787Z,22.31
2022-08-22T05:32:48.738Z,22.36
2022-08-22T05:35:20.466Z,22.24
2022-08-22T05:37:55.115Z,22.15
2022-08-22T05:40:29.363Z,22.33
2022-08-22T05:42:59.842Z,22.26
2022-08-22T05:45:31.666Z,22.35
2022-08-22T05:48:08.939Z,22.29
2022-08-22T05:50:43.303Z,22.51
2022-08-22T05:53:20.959Z,22.66
2022-08-22T05:56:01.130Z,22.61
2022-08-22T05:58:47.369Z,22.68
2022-08-22T06:01:25.777Z,22.86
2022-08-22T06:04:06.752Z,23.07
2022-08-22T06:06:43.814Z,23.03
2022-08-22T06:09:23.001Z,23.35
2022-08-22T06:12:00.653Z,23.37
2022-08-22T06:14:39.389Z,23.72
2022-08-22T06:17:12.938Z,23.91
2022-08-22T06:19:48.193Z,24.17
2022-08-22T06:22:26.174Z,24.16
2022-08-22T06:25:13.795Z,24.28
2022-08-22T06:27:44.977Z,23.90
2022-08-22T06:30:17.474Z,24.45
2022-08-22T06:32:59.229Z,24.74
2022-08-22T06:35:53.915Z,24.92
2022-08-22T06:38:28.482Z,24.74
2022-08-22T06:41:01.246Z,24.86
2022-08-22T06:43:43.635Z,24.67
2022-08-22T06:46:16.231Z,24.55
2022-08-22T06:48:47.024Z,24.84
2022-08-22T06:51:20.017Z,25.21
2022-08-22T06:53:54.887Z,25.48
2022-08-22T06:56:29.588Z,25.20
2022-08-22T06:59:03.729Z,25.17
2022-08-22T07:01:40.023Z,25.40
2022-08-22T07:04:11.581Z,25.59
2022-08-22T07:06:45.146Z,25.26
2022-08-22T07:09:24.919Z,25.52
2022-08-22T07:11:59.046Z,25.71
2022-08-22T07:14:33.098Z,25.86
2022-08-22T07:17:04.885Z,26.15
2022-08-22T07:19:37.716Z,26.16
2022-08-22T07:22:16.438Z,26.19
2022-08-22T07:24:52.222Z,26.53
2022-08-22T07:27:37.605Z,26.73
2022-08-22T07:30:16.000Z,26.93
2022-08-22T07:33:25.305Z,26.95
2022-08-22T07:35:59.930Z,27.11
2022-08-22T07:38:42.732Z,26.97
2022-08-22T07:41:17.434Z,27.08
2022-08-22T07:43:52.310Z,26.93
2022-08-22T07:46:29.974Z,26.54
2022-08-22T07:49:09.884Z,26.39
2022-08-22T07:51:46.166Z,26.46
2022-08-22T07:54:19.280Z,26.73
2022-08-22T07:56:58.838Z,26.77
2022-08-22T07:59:30.754Z,26.96
2022-08-22T08:02:06.485Z,27.17
2022-08-22T08:04:40.592Z,26.88
2022-08-22T08:07:16.280Z,27.50
2022-08-22T08:09:51.034Z,27.43
2022-08-22T08:12:23.043Z,27.98
2022-08-22T08:14:56.771Z,28.02
2022-08-22T08:17:32.403Z,27.81
2022-08-22T08:20:07.127Z,27.64
2022-08-22T08:22:39.679Z,27.76
2022-08-22T08:25:10.318Z,28.05
2022-08-22T08:27:58.674Z,27.93
2022-08-22T08:30:38.612Z,28.29
2022-08-22T08:33:26.152Z,27.97
2022-08-22T08:36:02.482Z,28.05
2022-08-22T08:38:43.566Z,28.42
2022-08-22T08:42:03.764Z,28.31
2022-08-22T08:44:52.513Z,28.55
2022-08-22T08:47:47.865Z,28.22
2022-08-22T08:50:34.033Z,28.33
2022-08-22T08:53:42.798Z,28.55
2022-08-22T08:56:25.414Z,29.14
2022-08-22T08:59:09.953Z,29.47
2022-08-22T09:01:50.807Z,29.65
2022-08-22T09:04:48.514Z,29.55
2022-08-22T09:07:47.929Z,29.77
2022-08-22T09:10:35.382Z,29.87
2022-08-22T09:13:29.979Z,29.36
2022-08-22T09:16:32.542Z,29.08
2022-08-22T09:19:29.112Z,29.07
2022-08-22T09:22:26.075Z,28.77
2022-08-22T09:25:25.388Z,28.78
2022-08-22T09:28:02.469Z,28.92
2022-08-22T09:30:54.230Z,28.85
2022-08-22T09:33:31.549Z,28.33
2022-08-22T09:36:06.579Z,28.33
2022-08-22T09:38:55.437Z,28.36
2022-08-22T09:41:36.862Z,28.12
2022-08-22T09:44:16.620Z,28.36
2022-08-22T09:47:04.689Z,28.77
2022-08-22T09:49:49.777Z,28.67
2022-08-22T09:52:36.236Z,28.75
2022-08-22T09:55:16.086Z,28.49
2022-08-22T09:57:56.943Z,29.12
2022-08-22T10:00:33.759Z,28.70
2022-08-22T10:03:17.145Z,28.76
2022-08-22T10:05:52.544Z,28.89
2022-08-22T10:08:45.993Z,28.67
2022-08-22T10:11:25.912Z,28.87
2022-08-22T10:14:03.568Z,29.64
2022-08-22T10:16:54.611Z,29.36
2022-08-22T10:19:29.971Z,29.55
2022-08-22T10:22:19.735Z,29.70
2022-08-22T10:25:00.055Z,29.55
2022-08-22T10:27:45.881Z,29.75
2022-08-22T10:30:21.159Z,29.49
2022-08-22T10:33:01.519Z,29.40
2022-08-22T10:35:35.637Z,29.80
2022-08-22T10:38:13.194Z,30.05
2022-08-22T10:40:53.602Z,30.44
2022-08-22T10:43:32.889Z,29.86
2022-08-22T10:46:07.132Z,29.79
2022-08-22T10:48:49.462Z,30.47
2022-08-22T10:51:36.711Z,29.95
2022-08-22T10:54:29.092Z,31.12
2022-08-22T10:57:30.240Z,30.63
2022-08-22T11:00:08.813Z,30.12
2022-08-22T11:02:53.647Z,30.36
2022-08-22T11:05:35.748Z,30.42
2022-08-22T11:08:56.153Z,30.18
2022-08-22T11:11:40.195Z,29.88
2022-08-22T11:14:47.258Z,29.96
2022-08-22T11:17:34.556Z,29.93
2022-08-22T11:20:19.548Z,29.20
2022-08-22T11:23:08.110Z,28.37
2022-08-22T11:25:54.219Z,28.46
2022-08-22T11:28:44.622Z,28.18
2022-08-22T11:31:23.705Z,28.65
2022-08-22T11:34:00.884Z,28.52
2022-08-22T11:36:38.544Z,29.12
2022-08-22T11:39:18.984Z,28.68
2022-08-22T11:41:58.676Z,27.96
2022-08-22T11:44:34.500Z,28.87
2022-08-22T11:47:12.103Z,28.95
2022-08-22T11:49:52.273Z,29.15
2022-08-22T11:52:57.701Z,29.01
2022-08-22T11:55:39.568Z,29.08
2022-08-22T11:58:25.791Z,29.11
2022-08-22T12:01:05.103Z,28.84
2022-08-22T12:03:47.095Z,28.26
2022-08-22T12:06:47.122Z,28.22
2022-08-22T12:09:31.925Z,27.93
2022-08-22T12:12:19.808Z,28.62
2022-08-22T12:14:56.323Z,28.88
2022-08-22T12:17:59.890Z,28.80
2022-08-22T12:21:03.423Z,29.03
2022-08-22T12:23:56.678Z,29.00
2022-08-22T12:26:34.447Z,28.86
2022-08-22T12:29:33.927Z,28.40
2022-08-22T12:32:34.096Z,28.31
2022-08-22T12:35:30.064Z,27.96
2022-08-22T12:38:29.387Z,27.76
2022-08-22T12:41:13.045Z,27.90
2022-08-22T12:43:56.919Z,27.81
2022-08-22T12:46:47.286Z,27.23
2022-08-22T12:49:30.593Z,27.84
2022-08-22T12:52:12.949Z,28.15
2022-08-22T12:55:12.146Z,27.87
2022-08-22T12:57:53.949Z,27.77
2022-08-22T13:00:37.170Z,27.89
2022-08-22T13:03:10.537Z,27.64
2022-08-22T13:05:45.332Z,27.62
2022-08-22T13:08:31.431Z,28.50
2022-08-22T13:11:02.587Z,28.77
2022-08-22T13:13:38.832Z,28.71
2022-08-22T13:16:15.740Z,29.34
2022-08-22T13:18:54.456Z,28.97
2022-08-22T13:21:31.735Z,28.84
2022-08-22T13:24:10.635Z,28.23
2022-08-22T13:26:49.903Z,28.12
2022-08-22T13:29:27.129Z,27.81
2022-08-22T13:32:02.286Z,27.50
2022-08-22T13:34:40.682Z,27.55
2022-08-22T13:37:20.181Z,27.30
2022-08-22T13:39:59.987Z,27.35
2022-08-22T13:42:31.600Z,27.39
2022-08-22T13:45:05.488Z,27.10
2022-08-22T13:47:53.084Z,26.97
2022-08-22T13:50:25.179Z,27.47
2022-08-22T13:53:01.379Z,27.35
2022-08-22T13:55:36.887Z,26.92
2022-08-22T13:58:13.818Z,27.27
2022-08-22T14:01:31.267Z,27.31
2022-08-22T14:04:28.690Z,27.26
2022-08-22T14:07:24.274Z,26.95
2022-08-22T14:09:59.666Z,26.91
2022-08-22T14:12:50.637Z,27.36
2022-08-22T14:15:26.260Z,26.78
2022-08-22T14:18:11.141Z,26.22
2022-08-22T14:20:44.974Z,26.55
2022-08-22T14:23:26.999Z,26.47
2022-08-22T14:25:58.315Z,26.19
2022-08-22T14:28:32.604Z,26.30
2022-08-22T14:31:07.374Z,26.41
2022-08-22T14:33:41.247Z,26.36
2022-08-22T14:36:18.522Z,26.59
2022-08-22T14:38:53.329Z,26.61
2022-08-22T14:41:52.633Z,26.09
2022-08-22T14:44:22.373Z,26.16
2022-08-22T14:46:56.628Z,26.14
2022-08-22T14:49:38.270Z,26.28
2022-08-22T14:52:19.859Z,25.96
2022-08-22T14:54:50.913Z,25.77
2022-08-22T14:57:21.768Z,25.66
2022-08-22T14:59:53.495Z,25.19
2022-08-22T15:02:29.378Z,25.79
2022-08-22T15:05:02.317Z,25.56
2022-08-22T15:07:37.786Z,25.65
2022-08-22T15:10:21.502Z,25.64
2022-08-22T15:12:55.009Z,25.57
2022-08-22T15:15:49.843Z,25.88
2022-08-22T15:18:35.942Z,25.42
2022-08-22T15:21:11.261Z,25.46
2022-08-22T15:23:47.056Z,25.63
2022-08-22T15:26:24.495Z,26.00
2022-08-22T15:29:08.132Z,25.90
2022-08-22T15:31:39.776Z,25.99
2022-08-22T15:34:18.091Z,26.06
2022-08-22T15:37:27.161Z,25.73
2022-08-22T15:40:11.567Z,25.67
2022-08-22T15:42:45.216Z,25.59
2022-08-22T15:45:24.379Z,25.54
2022-08-22T15:47:55.144Z,25.50
2022-08-22T15:50:38.311Z,25.99
2022-08-22T15:53:21.387Z,25.77
2022-08-22T15:56:27.325Z,25.68
2022-08-22T15:59:26.603Z,25.94
2022-08-22T16:02:00.521Z,25.69
2022-08-22T16:04:38.358Z,25.52
2022-08-22T16:07:39.192Z,25.77
2022-08-22T16:10:32.174Z,25.93
2022-08-22T16:13:16.159Z,25.31
2022-08-22T16:16:00.511Z,25.59
2022-08-22T16:19:11.405Z,25.44
2022-08-22T16:22:15.911Z,25.36
2022-08-22T16:25:06.081Z,25.67
2022-08-22T16:27:58.587Z,25.69
2022-08-22T16:30:38.956Z,25.44
2022-08-22T16:33:18.500Z,25.11
2022-08-22T16:36:25.190Z,25.44
2022-08-22T16:38:57.663Z,25.27
2022-08-22T16:41:35.082Z,25.18
2022-08-22T16:44:24.403Z,25.31
2022-08-22T16:46:56.794Z,25.11
2022-08-22T16:49:30.579Z,24.98
2022-08-22T16:52:37.197Z,24.85
2022-08-22T16:55:07.001Z,25.19
2022-08-22T16:58:05.050Z,25.12
2022-08-22T17:00:42.935Z,24.90
2022-08-22T17:03:21.816Z,25.05
2022-08-22T17:06:02.846Z,25.02
2022-08-22T17:08:51.670Z,24.91
2022-08-22T17:11:33.860Z,24.98
2022-08-22T17:14:18.100Z,24.99
2022-08-22T17:17:02.614Z,24.88
2022-08-22T17:19:44.203Z,24.70
2022-08-22T17:22:29.130Z,24.76
2022-08-22T17:25:21.163Z,24.74
2022-08-22T17:28:04.557Z,24.75
2022-08-22T17:30:41.371Z,24.80
2022-08-22T17:33:24.783Z,24.75
2022-08-22T17:36:26.271Z,24.81
2022-08-22T17:39:12.636Z,24.69
2022-08-22T17:41:51.225Z,24.45
2022-08-22T17:44:29.142Z,24.56
2022-08-22T17:47:07.239Z,24.64
2022-08-22T17:49:55.137Z,24.56
2022-08-22T17:52:34.879Z,24.40
2022-08-22T17:55:15.664Z,24.56
2022-08-22T17:57:52.425Z,24.46
2022-08-22T18:00:30.582Z,24.45
2022-08-22T18:03:07.741Z,24.28
2022-08-22T18:05:46.709Z,24.31
2022-08-22T18:11:25.868Z,23.96
2022-08-22T18:14:05.054Z,23.93
2022-08-22T18:16:38.427Z,23.69
2022-08-22T18:19:17.801Z,23.75
2022-08-22T18:21:55.417Z,23.68
2022-08-22T18:24:33.597Z,23.73
2022-08-22T18:27:10.459Z,23.51
2022-08-22T18:30:04.355Z,23.59
2022-08-22T18:32:41.594Z,23.55
2022-08-22T18:35:20.938Z,23.51
2022-08-22T18:37:58.996Z,23.41
2022-08-22T18:40:49.812Z,23.41
2022-08-22T18:43:24.284Z,23.25
2022-08-22T18:46:04.336Z,23.42
2022-08-22T18:49:05.402Z,23.32
2022-08-22T18:51:38.617Z,23.20
2022-08-22T18:54:38.582Z,23.20
2022-08-22T18:57:30.731Z,23.25
2022-08-22T19:00:13.673Z,23.07
2022-08-22T19:03:18.390Z,23.13
2022-08-22T19:06:09.739Z,23.08
2022-08-22T19:09:11.338Z,23.05
2022-08-22T19:11:54.371Z,22.98
2022-08-22T19:14:52.653Z,23.07
2022-08-22T19:17:58.986Z,23.13
2022-08-22T19:20:49.481Z,22.98
2022-08-22T19:23:42.371Z,23.02
2022-08-22T19:26:36.958Z,22.91
2022-08-22T19:29:28.397Z,22.90
2022-08-22T19:32:02.115Z,23.00
2022-08-22T19:34:39.684Z,22.93
2022-08-22T19:37:31.922Z,22.93
2022-08-22T19:40:08.334Z,22.74
2022-08-22T19:42:47.004Z,22.84
2022-08-22T19:45:29.023Z,22.88
2022-08-22T19:48:10.534Z,22.98
2022-08-22T19:50:45.092Z,22.96
2022-08-22T19:53:37.422Z,22.86
2022-08-22T19:56:19.251Z,22.82
2022-08-22T19:59:02.113Z,22.88
2022-08-22T20:01:53.882Z,22.87
2022-08-22T20:04:56.721Z,22.80
2022-08-22T20:07:44.921Z,22.78
2022-08-22T20:10:27.008Z,22.76
2022-08-22T20:13:07.625Z,22.86
2022-08-22T20:16:16.198Z,22.80
2022-08-22T20:19:07.063Z,22.64
2022-08-22T20:22:03.964Z,22.71
2022-08-22T20:24:40.328Z,22.74
2022-08-22T20:27:16.519Z,22.57
2022-08-22T20:29:51.244Z,22.61
2022-08-22T20:32:25.321Z,22.63
2022-08-22T20:34:59.052Z,22.71
2022-08-22T20:37:56.197Z,22.71
2022-08-22T20:40:55.121Z,22.70
2022-08-22T20:43:31.995Z,22.69
2022-08-22T20:46:13.888Z,22.68
2022-08-22T20:48:48.185Z,22.67
2022-08-22T20:51:24.014Z,22.60
2022-08-22T20:53:55.364Z,22.64
2022-08-22T20:56:48.823Z,22.77
2022-08-22T20:59:30.774Z,22.74
2022-08-22T21:02:08.014Z,22.77
2022-08-22T21:04:47.809Z,22.81
2022-08-22T21:07:23.571Z,22.79
2022-08-22T21:10:17.805Z,22.65
2022-08-22T21:13:06.678Z,22.96
2022-08-22T21:15:38.886Z,22.98
2022-08-22T21:18:09.226Z,23.02
2022-08-22T21:20:40.919Z,23.01
2022-08-22T21:23:17.551Z,23.14
2022-08-22T21:25:57.431Z,23.15
2022-08-22T21:28:29.950Z,23.16
2022-08-22T21:31:00.493Z,23.21
2022-08-22T21:33:30.074Z,23.17
2022-08-22T21:36:01.890Z,23.31
2022-08-22T21:38:31.339Z,23.23
2022-08-22T21:41:05.503Z,23.29
2022-08-22T21:43:37.977Z,23.12
2022-08-22T21:46:08.151Z,23.29
2022-08-22T21:48:41.124Z,23.26
2022-08-22T21:51:28.207Z,23.45
2022-08-22T21:54:40.163Z,23.53
2022-08-22T21:57:24.389Z,23.53
2022-08-22T21:59:59.544Z,23.44
2022-08-22T22:02:36.502Z,23.41
2022-08-22T22:05:11.511Z,23.66
2022-08-22T22:07:45.014Z,23.70
2022-08-22T22:10:16.967Z,23.53
2022-08-22T22:15:19.742Z,23.70
2022-08-22T22:17:49.161Z,23.74
2022-08-22T22:20:20.372Z,23.61
2022-08-22T22:22:51.362Z,23.76
2022-08-22T22:25:41.124Z,23.65
2022-08-22T22:28:13.882Z,23.74
2022-08-22T22:30:45.861Z,23.71
2022-08-22T22:33:15.412Z,23.71
2022-08-22T22:35:45.093Z,23.73
2022-08-22T22:38:19.387Z,23.68
2022-08-22T22:40:51.655Z,23.80
2022-08-22T22:43:21.384Z,23.78
2022-08-22T22:45:50.328Z,23.74
2022-08-22T22:48:24.601Z,23.64
2022-08-22T22:50:54.780Z,23.60
2022-08-22T22:53:37.997Z,23.61
2022-08-22T22:56:12.309Z,23.60
2022-08-22T22:58:42.434Z,23.58
2022-08-22T23:01:13.451Z,23.56
2022-08-22T23:03:43.572Z,23.56
2022-08-22T23:06:14.004Z,23.42
2022-08-22T23:08:45.373Z,23.57
2022-08-22T23:11:16.670Z,23.51
2022-08-22T23:13:45.950Z,23.44
2022-08-22T23:16:17.085Z,23.47
2022-08-22T23:18:46.901Z,23.36
2022-08-22T23:21:18.593Z,23.26
2022-08-22T23:23:51.729Z,23.30
2022-08-22T23:26:20.932Z,23.25
2022-08-22T23:28:50.316Z,23.12
2022-08-22T23:31:33.298Z,23.21
2022-08-22T23:34:05.176Z,23.17
2022-08-22T23:36:34.795Z,23.14
2022-08-22T23:39:07.706Z,23.04
2022-08-22T23:41:37.697Z,23.02
2022-08-22T23:44:13.558Z,23.03
2022-08-22T23:46:43.533Z,22.93
2022-08-22T23:49:13.031Z,22.95
2022-08-22T23:51:42.983Z,22.92
2022-08-22T23:54:14.394Z,22.97
2022-08-22T23:56:46.363Z,23.08
2022-08-22T23:59:18.005Z,22.94
